createdAt,value
2022-07-29T00:02:01.311Z,66.08
2022-07-29T00:04:32.785Z,65.78
2022-07-29T00:07:05.051Z,65.81
2022-07-29T00:09:51.033Z,66.59
2022-07-29T00:12:26.681Z,66.21
2022-07-29T00:14:58.879Z,71.31
2022-07-29T00:17:29.695Z,73.42
2022-07-29T00:20:00.937Z,72.05
2022-07-29T00:22:32.396Z,72.43
2022-07-29T00:25:03.910Z,72.67
2022-07-29T00:27:35.662Z,73.29
2022-07-29T00:30:08.385Z,73.41
2022-07-29T00:32:40.425Z,72.74
2022-07-29T00:35:30.136Z,73.77
2022-07-29T00:38:02.130Z,74.97
2022-07-29T00:40:33.052Z,74.35
2022-07-29T00:43:04.563Z,70.87
2022-07-29T00:45:36.488Z,70.38
2022-07-29T00:48:11.187Z,70.05
2022-07-29T00:50:42.924Z,69.65
2022-07-29T00:53:15.923Z,69.08
2022-07-29T00:55:47.779Z,68.79
2022-07-29T00:58:19.391Z,68.96
2022-07-29T01:00:50.967Z,69.10
2022-07-29T01:03:22.348Z,68.38
2022-07-29T01:05:54.413Z,68.30
2022-07-29T01:08:26.273Z,69.38
2022-07-29T01:10:58.022Z,67.87
2022-07-29T01:13:29.766Z,67.28
2022-07-29T01:16:24.187Z,67.41
2022-07-29T01:19:03.453Z,67.12
2022-07-29T01:21:34.649Z,67.00
2022-07-29T01:24:21.878Z,66.35
2022-07-29T01:27:02.446Z,66.70
2022-07-29T01:29:55.851Z,66.64
2022-07-29T01:32:34.510Z,65.83
2022-07-29T01:35:28.629Z,66.29
2022-07-29T01:38:28.270Z,66.19
2022-07-29T01:41:08.124Z,66.09
2022-07-29T01:43:59.031Z,65.57
2022-07-29T01:46:41.285Z,65.63
2022-07-29T01:49:18.236Z,65.02
2022-07-29T01:52:08.188Z,65.30
2022-07-29T01:54:46.832Z,64.69
2022-07-29T01:57:22.360Z,64.82
2022-07-29T01:59:55.564Z,64.59
2022-07-29T02:02:29.041Z,64.73
2022-07-29T02:05:02.547Z,64.58
2022-07-29T02:07:36.327Z,64.32
2022-07-29T02:10:10.147Z,64.67
2022-07-29T02:12:43.550Z,64.39
2022-07-29T02:15:22.996Z,64.32
2022-07-29T02:18:21.017Z,64.29
2022-07-29T02:20:57.423Z,64.21
2022-07-29T02:23:30.412Z,63.94
2022-07-29T02:26:03.071Z,63.95
2022-07-29T02:28:36.026Z,64.15
2022-07-29T02:31:08.172Z,63.75
2022-07-29T02:33:43.144Z,63.33
2022-07-29T02:36:15.295Z,63.44
2022-07-29T02:38:54.291Z,63.68
2022-07-29T02:41:52.791Z,63.72
2022-07-29T02:44:30.051Z,63.18
2022-07-29T02:47:15.862Z,63.22
2022-07-29T02:49:59.156Z,63.20
2022-07-29T02:52:57.770Z,63.53
2022-07-29T02:55:40.590Z,63.29
2022-07-29T02:58:31.867Z,63.20
2022-07-29T03:01:11.928Z,63.16
2022-07-29T03:03:47.868Z,63.27
2022-07-29T03:06:28.227Z,62.85
2022-07-29T03:09:13.950Z,62.87
2022-07-29T03:11:50.512Z,62.79
2022-07-29T03:14:23.217Z,63.07
2022-07-29T03:16:55.663Z,62.94
2022-07-29T03:19:27.597Z,62.76
2022-07-29T03:22:01.652Z,62.84
2022-07-29T03:24:35.766Z,62.62
2022-07-29T03:27:08.125Z,62.75
2022-07-29T03:29:39.552Z,62.78
2022-07-29T03:32:11.249Z,62.64
2022-07-29T03:34:42.592Z,62.68
2022-07-29T03:37:13.953Z,62.55
2022-07-29T03:39:47.223Z,62.79
2022-07-29T03:42:22.618Z,62.29
2022-07-29T03:44:57.147Z,62.58
2022-07-29T03:47:49.586Z,62.63
2022-07-29T03:50:24.065Z,62.53
2022-07-29T03:52:56.033Z,62.40
2022-07-29T03:55:28.653Z,62.59
2022-07-29T03:58:01.294Z,62.00
2022-07-29T04:00:36.013Z,62.20
2022-07-29T04:03:10.624Z,62.50
2022-07-29T04:05:43.150Z,62.12
2022-07-29T04:08:14.634Z,62.56
2022-07-29T04:10:46.153Z,62.31
2022-07-29T04:13:17.879Z,62.35
2022-07-29T04:15:49.418Z,62.10
2022-07-29T04:18:20.852Z,61.95
2022-07-29T04:20:52.614Z,62.16
2022-07-29T04:23:23.576Z,62.77
2022-07-29T04:25:54.932Z,62.06
2022-07-29T04:28:26.345Z,61.98
2022-07-29T04:30:57.989Z,62.20
2022-07-29T04:33:29.476Z,62.00
2022-07-29T04:36:00.907Z,62.03
2022-07-29T04:38:32.555Z,61.88
2022-07-29T04:41:04.138Z,61.78
2022-07-29T04:43:38.931Z,61.13
2022-07-29T04:46:10.624Z,61.56
2022-07-29T04:48:42.208Z,61.85
2022-07-29T04:51:14.416Z,61.67
2022-07-29T04:53:45.839Z,61.66
2022-07-29T04:56:17.249Z,61.91
2022-07-29T04:58:48.986Z,61.63
2022-07-29T05:01:20.772Z,61.62
2022-07-29T05:03:53.974Z,61.30
2022-07-29T05:06:28.437Z,61.50
2022-07-29T05:08:59.719Z,61.53
2022-07-29T05:11:31.091Z,61.40
2022-07-29T05:14:02.558Z,61.41
2022-07-29T05:16:34.917Z,61.27
2022-07-29T05:19:08.593Z,61.82
2022-07-29T05:21:42.224Z,61.10
2022-07-29T05:24:14.340Z,61.31
2022-07-29T05:26:48.062Z,60.90
2022-07-29T05:29:44.127Z,60.83
2022-07-29T05:32:11.096Z,60.83
2022-07-29T05:34:50.722Z,60.78
2022-07-29T05:37:23.383Z,60.54
2022-07-29T05:39:56.705Z,60.55
2022-07-29T05:42:29.566Z,60.58
2022-07-29T05:45:01.217Z,60.18
2022-07-29T05:47:32.954Z,61.12
2022-07-29T05:50:04.428Z,60.40
2022-07-29T05:52:36.624Z,60.69
2022-07-29T05:55:08.476Z,60.25
2022-07-29T05:57:39.228Z,60.77
2022-07-29T06:00:11.694Z,60.26
2022-07-29T06:02:45.895Z,60.08
2022-07-29T06:05:17.868Z,60.11
2022-07-29T06:07:50.213Z,60.22
2022-07-29T06:10:23.994Z,59.83
2022-07-29T06:12:58.918Z,60.06
2022-07-29T06:15:30.649Z,59.93
2022-07-29T06:18:02.475Z,59.46
2022-07-29T06:20:35.008Z,59.38
2022-07-29T06:23:07.053Z,59.63
2022-07-29T06:25:39.153Z,59.44
2022-07-29T06:28:10.120Z,60.03
2022-07-29T06:30:42.729Z,59.53
2022-07-29T06:33:21.173Z,58.89
2022-07-29T06:35:53.541Z,59.04
2022-07-29T06:38:30.780Z,58.83
2022-07-29T06:41:08.358Z,59.01
2022-07-29T06:43:51.854Z,58.59
2022-07-29T06:46:25.228Z,58.82
2022-07-29T06:48:57.129Z,58.66
2022-07-29T06:51:29.919Z,58.83
2022-07-29T06:54:02.654Z,58.52
2022-07-29T06:56:40.469Z,58.37
2022-07-29T06:59:13.714Z,58.51
2022-07-29T07:01:46.226Z,58.41
2022-07-29T07:04:19.035Z,58.43
2022-07-29T07:06:49.972Z,58.66
2022-07-29T07:09:21.470Z,58.61
2022-07-29T07:11:52.469Z,58.49
2022-07-29T07:14:23.871Z,58.01
2022-07-29T07:16:55.339Z,58.04
2022-07-29T07:19:26.841Z,57.50
2022-07-29T07:21:58.475Z,57.77
2022-07-29T07:24:30.130Z,57.62
2022-07-29T07:27:01.985Z,57.44
2022-07-29T07:29:33.377Z,57.67
2022-07-29T07:32:05.623Z,57.72
2022-07-29T07:34:37.389Z,57.60
2022-07-29T07:37:08.513Z,57.88
2022-07-29T07:39:40.280Z,57.72
2022-07-29T07:42:13.972Z,57.08
2022-07-29T07:45:10.989Z,57.12
2022-07-29T07:47:36.745Z,56.78
2022-07-29T07:50:18.230Z,56.52
2022-07-29T07:52:55.897Z,56.89
2022-07-29T07:55:28.058Z,56.56
2022-07-29T07:58:00.126Z,56.66
2022-07-29T08:00:31.914Z,56.56
2022-07-29T08:03:03.241Z,56.21
2022-07-29T08:05:49.862Z,56.65
2022-07-29T08:08:22.046Z,56.65
2022-07-29T08:10:58.114Z,56.47
2022-07-29T08:13:32.520Z,56.53
2022-07-29T08:16:04.227Z,56.32
2022-07-29T08:18:38.769Z,56.60
2022-07-29T08:21:10.667Z,56.15
2022-07-29T08:23:52.789Z,56.55
2022-07-29T08:26:26.126Z,56.58
2022-07-29T08:28:57.741Z,56.53
2022-07-29T08:31:29.254Z,56.32
2022-07-29T08:34:02.249Z,56.15
2022-07-29T08:36:34.395Z,56.46
2022-07-29T08:39:07.332Z,56.14
2022-07-29T08:41:39.120Z,56.42
2022-07-29T08:44:09.927Z,57.13
2022-07-29T08:46:42.058Z,56.32
2022-07-29T08:49:13.662Z,56.24
2022-07-29T08:51:49.175Z,56.41
2022-07-29T08:54:21.986Z,56.04
2022-07-29T08:56:55.141Z,56.00
2022-07-29T08:59:31.281Z,55.77
2022-07-29T09:02:04.388Z,56.46
2022-07-29T09:04:38.823Z,55.92
2022-07-29T09:07:12.000Z,56.17
2022-07-29T09:09:43.766Z,56.40
2022-07-29T09:12:28.633Z,56.24
2022-07-29T09:15:01.013Z,56.00
2022-07-29T09:17:50.513Z,56.23
2022-07-29T09:20:26.824Z,55.93
2022-07-29T09:22:58.323Z,56.31
2022-07-29T09:25:41.736Z,55.69
2022-07-29T09:28:20.739Z,56.07
2022-07-29T09:31:01.513Z,56.30
2022-07-29T09:33:42.961Z,55.95
2022-07-29T09:36:14.497Z,56.47
2022-07-29T09:38:45.843Z,56.37
2022-07-29T09:41:17.290Z,56.24
2022-07-29T09:44:00.516Z,56.13
2022-07-29T09:46:32.081Z,56.42
2022-07-29T09:49:11.379Z,56.15
2022-07-29T09:51:43.780Z,56.65
2022-07-29T09:54:29.152Z,56.56
2022-07-29T09:57:00.570Z,56.40
2022-07-29T09:59:32.008Z,56.21
2022-07-29T10:02:03.160Z,57.32
2022-07-29T10:04:45.107Z,56.50
2022-07-29T10:07:16.478Z,56.56
2022-07-29T10:09:58.942Z,56.73
2022-07-29T10:12:30.526Z,57.17
2022-07-29T10:15:04.612Z,57.53
2022-07-29T10:17:36.115Z,57.37
2022-07-29T10:20:16.378Z,57.30
2022-07-29T10:22:53.756Z,58.01
2022-07-29T10:25:29.186Z,58.34
2022-07-29T10:28:00.823Z,59.02
2022-07-29T10:30:32.317Z,60.73
2022-07-29T10:33:18.267Z,61.97
2022-07-29T10:36:11.201Z,61.59
2022-07-29T10:38:56.798Z,62.35
2022-07-29T10:42:00.407Z,61.46
2022-07-29T10:44:32.678Z,61.02
2022-07-29T10:47:04.814Z,61.78
2022-07-29T10:49:35.767Z,62.60
2022-07-29T10:52:11.828Z,63.05
2022-07-29T10:54:50.756Z,63.11
2022-07-29T10:57:53.511Z,63.09
2022-07-29T11:00:32.148Z,63.57
2022-07-29T11:03:04.684Z,64.71
2022-07-29T11:06:02.037Z,64.90
2022-07-29T11:08:40.397Z,64.69
2022-07-29T11:11:29.685Z,65.42
2022-07-29T11:14:01.395Z,64.76
2022-07-29T11:17:05.992Z,64.79
2022-07-29T11:19:40.116Z,64.07
2022-07-29T11:22:16.618Z,63.73
2022-07-29T11:25:08.030Z,63.43
2022-07-29T11:27:41.924Z,63.57
2022-07-29T11:30:14.637Z,63.56
2022-07-29T11:32:48.584Z,63.47
2022-07-29T11:35:38.525Z,63.61
2022-07-29T11:38:28.874Z,63.85
2022-07-29T11:41:29.411Z,63.87
2022-07-29T11:44:03.573Z,63.62
2022-07-29T11:46:54.280Z,63.79
2022-07-29T11:49:32.073Z,63.47
2022-07-29T11:52:05.567Z,63.46
2022-07-29T11:54:51.913Z,63.19
2022-07-29T11:57:37.204Z,63.21
2022-07-29T12:00:18.576Z,62.86
2022-07-29T12:02:50.428Z,62.97
2022-07-29T12:05:36.895Z,62.85
2022-07-29T12:08:17.028Z,63.04
2022-07-29T12:10:49.708Z,62.96
2022-07-29T12:13:37.108Z,63.10
2022-07-29T12:16:09.311Z,63.28
2022-07-29T12:18:59.250Z,63.05
2022-07-29T12:21:31.305Z,63.00
2022-07-29T12:24:09.405Z,62.87
2022-07-29T12:26:55.994Z,64.68
2022-07-29T12:29:34.685Z,65.63
2022-07-29T12:32:14.405Z,65.82
2022-07-29T12:34:51.195Z,65.98
2022-07-29T12:37:40.559Z,67.31
2022-07-29T12:40:15.454Z,66.68
2022-07-29T12:43:13.417Z,66.75
2022-07-29T12:45:56.744Z,66.99
2022-07-29T12:48:42.907Z,66.58
2022-07-29T12:51:16.733Z,66.50
2022-07-29T12:54:18.551Z,67.17
2022-07-29T12:57:01.002Z,66.04
2022-07-29T12:59:32.881Z,65.24
2022-07-29T13:02:05.708Z,64.25
2022-07-29T13:04:39.972Z,63.79
2022-07-29T13:07:11.579Z,62.59
2022-07-29T13:09:50.982Z,61.61
2022-07-29T13:12:23.308Z,61.23
2022-07-29T13:14:54.886Z,61.75
2022-07-29T13:17:27.245Z,61.10
2022-07-29T13:20:14.900Z,60.25
2022-07-29T13:22:51.296Z,58.71
2022-07-29T13:25:34.220Z,58.45
2022-07-29T13:28:05.774Z,58.71
2022-07-29T13:30:46.126Z,58.45
2022-07-29T13:33:17.944Z,57.90
2022-07-29T13:35:50.236Z,58.07
2022-07-29T13:38:21.696Z,57.83
2022-07-29T13:41:03.570Z,57.56
2022-07-29T13:43:35.024Z,57.69
2022-07-29T13:46:06.915Z,59.79
2022-07-29T13:48:38.716Z,59.30
2022-07-29T13:51:11.171Z,59.11
2022-07-29T13:53:42.662Z,58.78
2022-07-29T13:56:14.093Z,59.97
2022-07-29T13:58:45.624Z,59.82
2022-07-29T14:01:17.820Z,59.16
2022-07-29T14:03:49.419Z,59.01
2022-07-29T14:06:22.297Z,57.76
2022-07-29T14:08:53.748Z,57.32
2022-07-29T14:11:25.397Z,56.82
2022-07-29T14:13:57.039Z,56.02
2022-07-29T14:16:28.781Z,54.85
2022-07-29T14:18:59.874Z,54.32
2022-07-29T14:21:31.317Z,52.26
2022-07-29T14:24:17.850Z,51.43
2022-07-29T14:26:53.259Z,50.03
2022-07-29T14:29:24.850Z,50.26
2022-07-29T14:32:11.580Z,48.73
2022-07-29T14:34:43.360Z,48.59
2022-07-29T14:37:15.899Z,48.08
2022-07-29T14:39:47.601Z,47.78
2022-07-29T14:42:18.801Z,48.03
2022-07-29T14:44:51.777Z,47.41
2022-07-29T14:47:24.225Z,47.51
2022-07-29T14:49:55.678Z,47.18
2022-07-29T14:52:27.093Z,47.18
2022-07-29T14:54:58.554Z,47.18
2022-07-29T14:57:30.035Z,47.13
2022-07-29T15:00:01.584Z,46.66
2022-07-29T15:02:59.389Z,46.89
2022-07-29T15:05:24.324Z,46.94
2022-07-29T15:07:56.923Z,46.92
2022-07-29T15:10:31.513Z,46.87
2022-07-29T15:13:02.888Z,46.88
2022-07-29T15:15:34.313Z,46.94
2022-07-29T15:18:06.220Z,46.44
2022-07-29T15:20:37.130Z,46.50
2022-07-29T15:23:11.936Z,46.52
2022-07-29T15:25:43.349Z,46.31
2022-07-29T15:28:14.771Z,46.68
2022-07-29T15:30:46.150Z,45.94
2022-07-29T15:33:17.478Z,46.09
2022-07-29T15:35:49.322Z,46.89
2022-07-29T15:38:20.997Z,47.02
2022-07-29T15:41:00.675Z,46.33
2022-07-29T15:43:32.056Z,46.38
2022-07-29T15:46:22.071Z,45.84
2022-07-29T15:48:53.518Z,47.76
2022-07-29T15:51:25.052Z,47.43
2022-07-29T15:53:57.100Z,47.02
2022-07-29T15:56:29.225Z,46.23
2022-07-29T15:59:01.446Z,46.08
2022-07-29T16:01:32.259Z,46.98
2022-07-29T16:04:04.301Z,46.27
2022-07-29T16:06:35.163Z,46.38
2022-07-29T16:09:07.173Z,45.50
2022-07-29T16:11:38.733Z,47.55
2022-07-29T16:14:11.007Z,47.82
2022-07-29T16:16:43.431Z,47.52
2022-07-29T16:19:14.211Z,46.99
2022-07-29T16:21:45.664Z,46.75
2022-07-29T16:24:17.118Z,46.50
2022-07-29T16:26:48.463Z,45.52
2022-07-29T16:29:20.761Z,45.86
2022-07-29T16:31:52.444Z,45.21
2022-07-29T16:34:23.783Z,45.54
2022-07-29T16:36:55.080Z,45.53
2022-07-29T16:39:26.625Z,45.69
2022-07-29T16:42:00.448Z,45.63
2022-07-29T16:44:32.811Z,45.67
2022-07-29T16:47:04.246Z,46.43
2022-07-29T16:49:35.698Z,46.19
2022-07-29T16:52:07.707Z,45.70
2022-07-29T16:54:39.093Z,46.17
2022-07-29T16:57:11.121Z,45.87
2022-07-29T16:59:43.308Z,45.62
2022-07-29T17:02:15.306Z,45.53
2022-07-29T17:04:46.767Z,45.57
2022-07-29T17:07:18.305Z,45.81
2022-07-29T17:09:53.832Z,45.65
2022-07-29T17:12:27.234Z,45.34
2022-07-29T17:14:58.614Z,45.66
2022-07-29T17:17:39.565Z,45.75
2022-07-29T17:20:21.517Z,45.81
2022-07-29T17:22:52.787Z,45.42
2022-07-29T17:25:24.693Z,45.65
2022-07-29T17:28:00.769Z,45.85
2022-07-29T17:30:32.691Z,45.98
2022-07-29T17:33:04.152Z,46.23
2022-07-29T17:35:53.925Z,45.97
2022-07-29T17:38:25.157Z,45.98
2022-07-29T17:40:56.606Z,45.56
2022-07-29T17:43:27.891Z,45.83
2022-07-29T17:45:59.637Z,46.04
2022-07-29T17:48:31.200Z,45.78
2022-07-29T17:51:02.578Z,46.22
2022-07-29T17:53:34.012Z,46.10
2022-07-29T17:56:06.365Z,45.58
2022-07-29T17:58:38.174Z,45.74
2022-07-29T18:01:09.991Z,45.59
2022-07-29T18:03:41.851Z,45.46
2022-07-29T18:06:14.123Z,45.26
2022-07-29T18:08:48.876Z,45.63
2022-07-29T18:11:20.246Z,45.15
2022-07-29T18:13:51.805Z,45.20
2022-07-29T18:16:23.013Z,45.88
2022-07-29T18:18:54.341Z,45.44
2022-07-29T18:21:43.508Z,45.85
2022-07-29T18:24:17.603Z,46.07
2022-07-29T18:26:48.993Z,45.60
2022-07-29T18:29:20.392Z,45.95
2022-07-29T18:31:51.866Z,46.14
2022-07-29T18:34:23.532Z,45.47
2022-07-29T18:36:55.101Z,45.96
2022-07-29T18:39:26.639Z,45.33
2022-07-29T18:41:58.585Z,45.82
2022-07-29T18:44:29.952Z,45.42
2022-07-29T18:47:01.855Z,45.43
2022-07-29T18:49:33.688Z,45.99
2022-07-29T18:52:05.199Z,45.55
2022-07-29T18:54:36.521Z,45.94
2022-07-29T18:57:54.671Z,45.55
2022-07-29T18:59:59.709Z,45.88
2022-07-29T19:02:31.205Z,45.65
2022-07-29T19:05:02.859Z,46.32
2022-07-29T19:07:34.593Z,45.71
2022-07-29T19:10:07.462Z,45.70
2022-07-29T19:12:39.294Z,45.52
2022-07-29T19:15:12.029Z,45.61
2022-07-29T19:17:43.296Z,46.23
2022-07-29T19:20:14.872Z,45.63
2022-07-29T19:22:46.475Z,45.68
2022-07-29T19:25:17.887Z,45.63
2022-07-29T19:27:49.392Z,45.88
2022-07-29T19:30:20.822Z,45.94
2022-07-29T19:32:52.345Z,45.93
2022-07-29T19:35:29.475Z,45.76
2022-07-29T19:38:03.268Z,45.88
2022-07-29T19:40:34.608Z,45.78
2022-07-29T19:43:50.562Z,45.60
2022-07-29T19:45:57.414Z,45.66
2022-07-29T19:48:28.775Z,45.90
2022-07-29T19:51:00.179Z,45.14
2022-07-29T19:53:31.648Z,45.74
2022-07-29T19:56:03.118Z,45.74
2022-07-29T19:58:34.655Z,45.76
2022-07-29T20:01:10.318Z,45.46
2022-07-29T20:03:42.221Z,45.21
2022-07-29T20:06:14.080Z,45.17
2022-07-29T20:08:46.592Z,45.35
2022-07-29T20:11:18.254Z,45.39
2022-07-29T20:13:49.508Z,45.45
2022-07-29T20:16:20.759Z,45.80
2022-07-29T20:18:51.926Z,45.62
2022-07-29T20:21:23.507Z,45.95
2022-07-29T20:23:58.144Z,45.03
2022-07-29T20:26:29.402Z,45.56
2022-07-29T20:29:00.755Z,45.79
2022-07-29T20:31:33.401Z,45.56
2022-07-29T20:34:04.730Z,45.11
2022-07-29T20:36:36.901Z,44.99
2022-07-29T20:39:09.037Z,45.11
2022-07-29T20:41:40.634Z,45.06
2022-07-29T20:44:11.704Z,45.63
2022-07-29T20:46:43.191Z,45.75
2022-07-29T20:49:14.413Z,45.03
2022-07-29T20:51:45.722Z,45.11
2022-07-29T20:54:17.031Z,45.17
2022-07-29T20:56:48.096Z,45.34
2022-07-29T20:59:19.801Z,44.83
2022-07-29T21:01:51.056Z,44.78
2022-07-29T21:04:22.706Z,45.29
2022-07-29T21:07:02.175Z,44.88
2022-07-29T21:09:33.629Z,45.21
2022-07-29T21:12:05.808Z,44.88
2022-07-29T21:14:37.341Z,45.11
2022-07-29T21:17:09.546Z,44.99
2022-07-29T21:19:40.340Z,45.45
2022-07-29T21:22:11.761Z,45.05
2022-07-29T21:24:43.211Z,45.01
2022-07-29T21:27:32.552Z,44.89
2022-07-29T21:30:03.946Z,45.32
2022-07-29T21:32:35.442Z,44.98
2022-07-29T21:35:08.440Z,44.79
2022-07-29T21:37:53.622Z,45.28
2022-07-29T21:40:25.064Z,45.42
2022-07-29T21:42:57.013Z,45.09
2022-07-29T21:45:28.328Z,45.13
2022-07-29T21:48:00.051Z,44.92
2022-07-29T21:50:31.400Z,44.88
2022-07-29T21:53:03.466Z,45.18
2022-07-29T21:55:35.763Z,44.97
2022-07-29T21:58:07.586Z,44.82
2022-07-29T22:00:39.646Z,44.99
2022-07-29T22:03:11.936Z,45.39
2022-07-29T22:05:43.432Z,45.08
2022-07-29T22:08:14.956Z,45.17
2022-07-29T22:10:46.240Z,44.53
2022-07-29T22:13:17.535Z,44.50
2022-07-29T22:15:48.915Z,44.64
2022-07-29T22:18:20.718Z,44.23
2022-07-29T22:20:52.784Z,44.34
2022-07-29T22:23:24.225Z,44.01
2022-07-29T22:25:55.505Z,44.37
2022-07-29T22:28:26.815Z,44.39
2022-07-29T22:30:58.763Z,44.17
2022-07-29T22:33:30.418Z,44.20
2022-07-29T22:36:01.849Z,44.42
2022-07-29T22:38:33.299Z,44.26
2022-07-29T22:41:04.713Z,44.39
2022-07-29T22:43:36.146Z,44.65
2022-07-29T22:46:10.092Z,44.57
2022-07-29T22:48:42.254Z,44.07
2022-07-29T22:51:13.588Z,44.48
2022-07-29T22:53:44.930Z,44.03
2022-07-29T22:56:16.402Z,44.67
2022-07-29T22:58:47.810Z,44.33
2022-07-29T23:01:37.745Z,45.17
2022-07-29T23:04:09.569Z,46.04
2022-07-29T23:06:40.864Z,46.76
2022-07-29T23:09:12.775Z,47.56
2022-07-29T23:11:44.223Z,48.21
2022-07-29T23:14:15.841Z,49.11
2022-07-29T23:16:47.860Z,50.16
2022-07-29T23:19:19.514Z,50.35
2022-07-29T23:21:50.973Z,50.65
2022-07-29T23:24:22.314Z,51.23
2022-07-29T23:26:54.166Z,51.52
2022-07-29T23:29:25.491Z,51.64
2022-07-29T23:31:57.177Z,52.15
2022-07-29T23:34:28.734Z,52.59
2022-07-29T23:37:00.627Z,53.31
2022-07-29T23:39:32.065Z,53.65
2022-07-29T23:42:04.218Z,53.73
2022-07-29T23:44:34.998Z,54.54
2022-07-29T23:47:07.014Z,54.28
2022-07-29T23:49:38.443Z,53.93
2022-07-29T23:52:10.059Z,54.61
2022-07-29T23:54:41.410Z,54.10
2022-07-29T23:57:12.635Z,54.41
2022-07-29T23:59:44.140Z,55.02
